Archival Weather

South Haven Area Rgnl

South Haven, Michigan (KLWA)

Report from: Saturday, September 30, 2023 3:55 AM EDT
Current time: Tuesday, February 27, 2024 6:27 AM EST

Current weather – Weather history – Daily summaries
Weather forecast

Present weatherMist
Temperature12.4°C (54.3°F)
Dew point11.6°C (52.9°F)
Winds 3 kts (1.5 m/s, 3.5 mph) East-Southeast (110°)
Visibility3 mi. (4.8 km)
Clouds Sky clear
Altimeter30.17 in.Hg (1022 mB)
Relative humidity95 %
Density altitude-403 ft. (-123 m)
Remarks Fully automated report
Automated weather observing station with precipitation discriminator
Flight conditions Marginal Visual Meteorological Conditions
Raw dataKLWA 300755Z AUTO 11003KT 3SM BR CLR 12/12 A3017 RMK AO2 T01240116
An error has occurred. This application may no longer respond until reloaded. Reload 🗙